Apellis — 3FJT2 — position and weather

sailwx.info

Track history (hours):
 
Tides and Currents Weather Stations Pressure Air Temp Water Temp Dewpoint Dewpoint Depression Visibility Wind Speed Wind Dir Waves Ship Positions

Apellis

Last reported at 2015-Jan-29 21:17 UTC. Time now 2015-Jan-31 03:56 UTC.
Position N 57°26' E 008°52'.

Length 178 m; draft 9.7 m.

Type: Cargo ship. MMSI: 353847000.

Date/timePositionNaut miles runAvg speedWind from/ knotsBaromVisibWave heightAir tempDewpointWater temp
2015-Jan-29 21:17N 57°26' E 008°52'6 7.9
2015-Jan-29 20:33N 57°29' E 009°01'8 7.9
2015-Jan-29 19:33N 57°33' E 009°14'44 7.1
2015-Jan-29 13:19N 57°48' E 010°32'7 6.4
2015-Jan-29 12:13N 57°48' E 010°46'6 8.4
2015-Jan-29 11:33N 57°44' E 010°53'9 9.1
2015-Jan-29 10:33N 57°38' E 011°06'9 9.4
2015-Jan-29 09:33N 57°31' E 011°19'9 8.7
2015-Jan-29 08:33N 57°25' E 011°29'10 9.6
2015-Jan-29 07:33N 57°16' E 011°35'9 8.9
2015-Jan-29 06:33N 57°08' E 011°41'9 9.1
2015-Jan-29 05:32N 56°59' E 011°46'9 9.1
2015-Jan-29 04:33N 56°50' E 011°51'8 7.2
2015-Jan-29 03:25N 56°42' E 011°49'  
2015-Jan-22 01:32N 57°09' E 010°46'1410.2
2015-Jan-22 00:11N 57°22' E 010°42'610.3
2015-Jan-21 23:33N 57°29' E 010°43'810.3
2015-Jan-21 22:48N 57°36' E 010°42'010.1
2015-Jan-21 22:46N 57°37' E 010°41'6 1.4
2015-Jan-21 18:16N 57°43' E 010°44'6 6.7
2015-Jan-21 17:24N 57°48' E 010°38'20410.6
2015-Jan-20 22:05N 55°18' E 006°27'611.1
2015-Jan-20 21:33N 55°13' E 006°22'1111.1
2015-Jan-20 20:32N 55°02' E 006°15'2511.0
2015-Jan-20 18:17N 54°40' E 005°55'811.3
2015-Jan-20 17:33N 54°34' E 005°45'1111.2
2015-Jan-20 16:33N 54°27' E 005°31'1410.8
2015-Jan-20 15:13N 54°17' E 005°13'810.5
2015-Jan-20 14:24N 54°11' E 005°02'910.5
2015-Jan-20 13:33N 54°05' E 004°51'17510.9
2015-Jan-19 21:31N 51°35' E 002°22'  
Track history (hours):
 
Tides and Currents Weather Stations Pressure Air Temp Water Temp Dewpoint Dewpoint Depression Visibility Wind Speed Wind Dir Waves Ship Positions

Apellis

Last reported at 2015-Jan-29 21:17 UTC. Time now 2015-Jan-31 03:56 UTC.
Position N 57°26' E 008°52'.

Length 178 m; draft 9.7 m.

Type: Cargo ship. MMSI: 353847000.

Date/timePositionNaut miles runAvg speedWind from/ knotsBaromVisibWave heightAir tempDewpointWater temp
2015-Jan-29 21:17N 57°26' E 008°52'6 7.9
2015-Jan-29 20:33N 57°29' E 009°01'8 7.9
2015-Jan-29 19:33N 57°33' E 009°14'44 7.1
2015-Jan-29 13:19N 57°48' E 010°32'7 6.4
2015-Jan-29 12:13N 57°48' E 010°46'6 8.4
2015-Jan-29 11:33N 57°44' E 010°53'9 9.1
2015-Jan-29 10:33N 57°38' E 011°06'9 9.4
2015-Jan-29 09:33N 57°31' E 011°19'9 8.7
2015-Jan-29 08:33N 57°25' E 011°29'10 9.6
2015-Jan-29 07:33N 57°16' E 011°35'9 8.9
2015-Jan-29 06:33N 57°08' E 011°41'9 9.1
2015-Jan-29 05:32N 56°59' E 011°46'9 9.1
2015-Jan-29 04:33N 56°50' E 011°51'8 7.2
2015-Jan-29 03:25N 56°42' E 011°49'  
2015-Jan-22 01:32N 57°09' E 010°46'1410.2
2015-Jan-22 00:11N 57°22' E 010°42'610.3
2015-Jan-21 23:33N 57°29' E 010°43'810.3
2015-Jan-21 22:48N 57°36' E 010°42'010.1
2015-Jan-21 22:46N 57°37' E 010°41'6 1.4
2015-Jan-21 18:16N 57°43' E 010°44'6 6.7
2015-Jan-21 17:24N 57°48' E 010°38'20410.6
2015-Jan-20 22:05N 55°18' E 006°27'611.1
2015-Jan-20 21:33N 55°13' E 006°22'1111.1
2015-Jan-20 20:32N 55°02' E 006°15'2511.0
2015-Jan-20 18:17N 54°40' E 005°55'811.3
2015-Jan-20 17:33N 54°34' E 005°45'1111.2
2015-Jan-20 16:33N 54°27' E 005°31'1410.8
2015-Jan-20 15:13N 54°17' E 005°13'810.5
2015-Jan-20 14:24N 54°11' E 005°02'910.5
2015-Jan-20 13:33N 54°05' E 004°51'17510.9
2015-Jan-19 21:31N 51°35' E 002°22'  

Dump ship's entire track history